createdAt,value
2023-02-19T00:01:48.660Z,71.73
2023-02-19T00:04:19.275Z,71.59
2023-02-19T00:06:47.718Z,71.49
2023-02-19T00:09:19.653Z,71.42
2023-02-19T00:11:48.283Z,71.39
2023-02-19T00:14:20.763Z,71.32
2023-02-19T00:16:49.073Z,71.35
2023-02-19T00:19:19.173Z,71.36
2023-02-19T00:21:47.723Z,71.31
2023-02-19T00:24:15.718Z,71.53
2023-02-19T00:26:45.214Z,71.48
2023-02-19T00:29:15.629Z,71.51
2023-02-19T00:31:44.309Z,71.33
2023-02-19T00:34:13.318Z,71.16
2023-02-19T00:36:42.291Z,71.12
2023-02-19T00:39:15.544Z,70.96
2023-02-19T00:41:44.045Z,70.88
2023-02-19T00:44:13.151Z,70.98
2023-02-19T00:46:43.073Z,70.79
2023-02-19T00:49:17.082Z,70.78
2023-02-19T00:51:45.239Z,70.63
2023-02-19T00:54:13.593Z,70.77
2023-02-19T00:56:41.414Z,70.77
2023-02-19T00:59:09.976Z,70.76
2023-02-19T01:01:38.093Z,70.73
2023-02-19T01:04:06.881Z,70.68
2023-02-19T01:06:35.746Z,70.63
2023-02-19T01:09:04.642Z,70.52
2023-02-19T01:11:32.213Z,70.52
2023-02-19T01:14:01.087Z,70.56
2023-02-19T01:16:28.721Z,70.65
2023-02-19T01:18:57.533Z,70.61
2023-02-19T01:21:28.007Z,70.89
2023-02-19T01:23:56.905Z,70.83
2023-02-19T01:26:29.675Z,70.81
2023-02-19T01:28:57.751Z,70.95
2023-02-19T01:31:25.981Z,70.98
2023-02-19T01:33:59.818Z,71.07
2023-02-19T01:36:28.598Z,70.92
2023-02-19T01:38:56.388Z,70.99
2023-02-19T01:41:25.634Z,70.91
2023-02-19T01:44:03.017Z,70.84
2023-02-19T01:46:42.278Z,70.73
2023-02-19T01:49:21.551Z,70.54
2023-02-19T01:51:58.629Z,70.64
2023-02-19T01:54:30.261Z,70.59
2023-02-19T01:56:59.316Z,70.71
2023-02-19T01:59:26.861Z,70.76
2023-02-19T02:01:54.698Z,70.65
2023-02-19T02:04:22.741Z,70.77
2023-02-19T02:06:56.329Z,70.85
2023-02-19T02:09:46.583Z,70.88
2023-02-19T02:12:14.429Z,70.78
2023-02-19T02:14:47.363Z,70.93
2023-02-19T02:17:21.141Z,70.95
2023-02-19T02:20:27.861Z,71.06
2023-02-19T02:23:15.043Z,71.03
2023-02-19T02:26:04.486Z,70.98
2023-02-19T02:28:44.464Z,70.86
2023-02-19T02:31:21.773Z,70.77
2023-02-19T02:34:02.495Z,70.73
2023-02-19T02:36:43.372Z,70.73
2023-02-19T02:39:15.350Z,70.69
2023-02-19T02:42:19.656Z,70.69
2023-02-19T02:45:08.497Z,70.67
2023-02-19T02:47:42.293Z,70.52
2023-02-19T02:50:27.718Z,70.45
2023-02-19T02:53:40.044Z,70.27
2023-02-19T02:56:10.354Z,70.19
2023-02-19T02:58:38.591Z,70.17
2023-02-19T03:01:29.782Z,70.06
2023-02-19T03:04:10.057Z,69.82
2023-02-19T03:06:38.634Z,69.61
2023-02-19T03:09:11.841Z,69.69
2023-02-19T03:12:02.460Z,69.62
2023-02-19T03:15:02.574Z,69.66
2023-02-19T03:17:51.852Z,69.54
2023-02-19T03:20:23.853Z,69.41
2023-02-19T03:22:58.528Z,69.33
2023-02-19T03:25:51.744Z,69.35
2023-02-19T03:28:45.637Z,69.42
2023-02-19T03:31:18.559Z,69.47
2023-02-19T03:33:50.049Z,69.43
2023-02-19T03:36:25.764Z,69.46
2023-02-19T03:39:00.879Z,69.37
2023-02-19T03:41:49.372Z,69.37
2023-02-19T03:44:28.572Z,69.54
2023-02-19T03:47:14.583Z,69.41
2023-02-19T03:49:52.819Z,69.41
2023-02-19T03:52:49.960Z,69.39
2023-02-19T03:55:38.277Z,69.42
2023-02-19T03:58:06.301Z,69.31
2023-02-19T04:00:46.787Z,69.16
2023-02-19T04:03:20.548Z,69.28
2023-02-19T04:05:55.807Z,69.37
2023-02-19T04:08:25.753Z,69.34
2023-02-19T04:10:55.142Z,69.33
2023-02-19T04:13:36.484Z,69.38
2023-02-19T04:16:10.023Z,69.36
2023-02-19T04:18:41.217Z,69.34
2023-02-19T04:21:10.946Z,69.42
2023-02-19T04:23:43.434Z,69.41
2023-02-19T04:26:12.632Z,69.46
2023-02-19T04:28:41.193Z,69.59
2023-02-19T04:31:09.123Z,69.59
2023-02-19T04:33:37.446Z,69.72
2023-02-19T04:36:05.737Z,69.80
2023-02-19T04:38:33.238Z,69.89
2023-02-19T04:41:00.743Z,69.87
2023-02-19T04:43:28.556Z,69.89
2023-02-19T04:46:01.216Z,69.99
2023-02-19T04:48:29.455Z,70.03
2023-02-19T04:50:57.056Z,70.14
2023-02-19T04:53:24.788Z,70.13
2023-02-19T04:55:53.498Z,70.06
2023-02-19T04:58:21.799Z,70.01
2023-02-19T05:00:53.384Z,70.02
2023-02-19T05:03:21.153Z,69.87
2023-02-19T05:05:48.650Z,69.92
2023-02-19T05:08:16.197Z,70.04
2023-02-19T05:10:43.990Z,69.96
2023-02-19T05:13:11.603Z,69.89
2023-02-19T05:15:39.153Z,69.81
2023-02-19T05:18:06.977Z,69.74
2023-02-19T05:20:34.504Z,69.90
2023-02-19T05:23:01.977Z,69.87
2023-02-19T05:25:29.752Z,69.85
2023-02-19T05:28:17.080Z,69.86
2023-02-19T05:30:53.079Z,69.84
2023-02-19T05:33:21.945Z,69.93
2023-02-19T05:35:51.413Z,69.77
2023-02-19T05:38:19.458Z,69.92
2023-02-19T05:40:47.304Z,69.95
2023-02-19T05:43:15.224Z,69.77
2023-02-19T05:45:46.054Z,69.84
2023-02-19T05:48:13.610Z,69.86
2023-02-19T05:50:41.491Z,69.69
2023-02-19T05:53:12.324Z,69.68
2023-02-19T05:55:39.828Z,69.53
2023-02-19T05:58:07.816Z,69.59
2023-02-19T06:00:35.478Z,69.45
2023-02-19T06:03:03.459Z,69.28
2023-02-19T06:05:30.988Z,69.40
2023-02-19T06:07:58.472Z,75.58
2023-02-19T06:10:28.334Z,68.66
2023-02-19T06:12:55.916Z,68.71
2023-02-19T06:15:23.510Z,68.85
2023-02-19T06:17:51.322Z,68.73
2023-02-19T06:20:18.888Z,68.98
2023-02-19T06:22:46.392Z,68.45
2023-02-19T06:25:14.212Z,68.33
2023-02-19T06:27:41.749Z,68.31
2023-02-19T06:30:10.288Z,68.36
2023-02-19T06:32:38.305Z,68.39
2023-02-19T06:35:06.121Z,68.55
2023-02-19T06:37:33.721Z,68.55
2023-02-19T06:40:01.532Z,68.68
2023-02-19T06:42:32.685Z,68.79
2023-02-19T06:45:00.225Z,68.71
2023-02-19T06:47:32.004Z,69.02
2023-02-19T06:50:00.331Z,69.19
2023-02-19T06:52:28.377Z,69.19
2023-02-19T06:54:55.859Z,69.08
2023-02-19T06:57:23.317Z,68.68
2023-02-19T06:59:51.129Z,68.16
2023-02-19T07:02:18.605Z,68.06
2023-02-19T07:04:46.106Z,68.03
2023-02-19T07:07:13.993Z,68.02
2023-02-19T07:09:41.458Z,67.94
2023-02-19T07:12:10.149Z,67.98
2023-02-19T07:14:38.027Z,68.19
2023-02-19T07:17:05.601Z,68.02
2023-02-19T07:19:33.150Z,68.03
2023-02-19T07:22:00.959Z,67.92
2023-02-19T07:24:28.541Z,68.09
2023-02-19T07:26:56.130Z,68.07
2023-02-19T07:29:24.033Z,68.17
2023-02-19T07:31:51.547Z,68.05
2023-02-19T07:34:19.085Z,67.88
2023-02-19T07:36:46.904Z,68.01
2023-02-19T07:39:15.798Z,67.77
2023-02-19T07:41:43.303Z,67.22
2023-02-19T07:44:13.638Z,67.12
2023-02-19T07:46:41.098Z,67.24
2023-02-19T07:49:08.653Z,67.02
2023-02-19T07:51:39.896Z,66.84
2023-02-19T07:54:08.165Z,66.99
2023-02-19T07:56:35.952Z,66.64
2023-02-19T07:59:03.464Z,66.57
2023-02-19T08:01:49.622Z,66.42
2023-02-19T08:04:17.590Z,66.21
2023-02-19T08:06:45.207Z,65.88
2023-02-19T08:09:13.094Z,65.97
2023-02-19T08:11:59.539Z,65.82
2023-02-19T08:14:28.089Z,66.01
2023-02-19T08:16:56.504Z,66.04
2023-02-19T08:19:24.640Z,66.04
2023-02-19T08:21:53.555Z,66.05
2023-02-19T08:24:21.650Z,65.63
2023-02-19T08:26:49.286Z,65.37
2023-02-19T08:29:16.764Z,65.13
2023-02-19T08:31:44.667Z,65.16
2023-02-19T08:34:12.345Z,64.99
2023-02-19T08:36:39.923Z,64.90
2023-02-19T08:39:07.858Z,64.60
2023-02-19T08:41:35.350Z,64.55
2023-02-19T08:44:03.013Z,64.48
2023-02-19T08:46:32.035Z,64.38
2023-02-19T08:49:00.941Z,64.68
2023-02-19T08:51:28.610Z,64.88
2023-02-19T08:53:56.362Z,64.99
2023-02-19T08:56:23.807Z,65.19
2023-02-19T08:58:51.523Z,65.29
2023-02-19T09:01:19.462Z,65.45
2023-02-19T09:03:47.085Z,65.64
2023-02-19T09:06:17.601Z,66.03
2023-02-19T09:08:45.748Z,66.07
2023-02-19T09:11:13.717Z,66.28
2023-02-19T09:13:41.710Z,66.26
2023-02-19T09:16:10.228Z,66.47
2023-02-19T09:18:38.182Z,66.58
2023-02-19T09:21:06.586Z,66.79
2023-02-19T09:23:35.465Z,66.94
2023-02-19T09:26:07.066Z,67.08
2023-02-19T09:28:36.019Z,67.08
2023-02-19T09:31:05.773Z,67.26
2023-02-19T09:33:33.743Z,67.47
2023-02-19T09:36:01.971Z,67.74
2023-02-19T09:38:30.930Z,68.13
2023-02-19T09:41:06.001Z,68.54
2023-02-19T09:43:34.317Z,68.29
2023-02-19T09:46:07.934Z,68.10
2023-02-19T09:48:35.812Z,68.12
2023-02-19T09:51:04.496Z,67.89
2023-02-19T09:53:44.313Z,67.93
2023-02-19T09:56:12.394Z,68.20
2023-02-19T09:58:52.337Z,68.17
2023-02-19T10:01:22.150Z,68.28
2023-02-19T10:03:50.081Z,68.37
2023-02-19T10:06:26.448Z,68.60
2023-02-19T10:09:26.907Z,68.80
2023-02-19T10:11:55.788Z,68.82
2023-02-19T10:14:35.497Z,68.79
2023-02-19T10:17:06.345Z,69.03
2023-02-19T10:19:36.145Z,68.88
2023-02-19T10:22:04.434Z,69.12
2023-02-19T10:24:32.300Z,69.26
2023-02-19T10:27:00.180Z,69.47
2023-02-19T10:29:28.013Z,69.56
2023-02-19T10:32:18.314Z,69.71
2023-02-19T10:34:46.523Z,69.27
2023-02-19T10:37:17.771Z,68.87
2023-02-19T10:39:50.766Z,68.42
2023-02-19T10:42:21.505Z,68.37
2023-02-19T10:44:55.668Z,68.01
2023-02-19T10:47:26.490Z,67.25
2023-02-19T10:49:59.650Z,67.21
2023-02-19T10:52:31.682Z,66.80
2023-02-19T10:55:19.568Z,66.04
2023-02-19T10:57:47.379Z,64.89
2023-02-19T11:00:30.592Z,65.67
2023-02-19T11:03:22.321Z,65.00
2023-02-19T11:06:06.761Z,64.47
2023-02-19T11:09:00.099Z,64.41
2023-02-19T11:11:30.299Z,64.33
2023-02-19T11:13:59.761Z,63.85
2023-02-19T11:17:00.757Z,64.31
2023-02-19T11:19:41.327Z,64.59
2023-02-19T11:22:28.985Z,64.03
2023-02-19T11:25:02.248Z,62.77
2023-02-19T11:27:29.862Z,61.82
2023-02-19T11:30:35.914Z,60.76
2023-02-19T11:33:24.848Z,60.31
2023-02-19T11:36:00.703Z,59.56
2023-02-19T11:38:28.507Z,58.35
2023-02-19T11:41:08.463Z,57.29
2023-02-19T11:43:57.884Z,56.70
2023-02-19T11:46:46.586Z,55.68
2023-02-19T11:49:26.035Z,55.74
2023-02-19T11:52:20.164Z,54.18
2023-02-19T11:55:10.447Z,54.19
2023-02-19T11:57:45.867Z,52.73
2023-02-19T12:00:28.744Z,53.59
2023-02-19T12:03:15.316Z,53.48
2023-02-19T12:05:48.607Z,52.29
2023-02-19T12:08:32.187Z,51.13
2023-02-19T12:11:27.355Z,51.57
2023-02-19T12:14:25.918Z,50.21
2023-02-19T12:17:08.381Z,50.14
2023-02-19T12:20:27.452Z,49.51
2023-02-19T12:22:57.721Z,49.57
2023-02-19T12:25:47.202Z,50.16
2023-02-19T12:28:23.585Z,49.27
2023-02-19T12:31:20.193Z,49.11
2023-02-19T12:34:21.085Z,49.10
2023-02-19T12:37:03.856Z,48.81
2023-02-19T12:39:34.398Z,49.68
2023-02-19T12:42:20.174Z,49.33
2023-02-19T12:45:05.126Z,48.97
2023-02-19T12:47:40.528Z,47.95
2023-02-19T12:50:24.471Z,47.16
2023-02-19T12:53:23.169Z,47.52
2023-02-19T12:55:52.350Z,49.21
2023-02-19T12:58:44.884Z,49.75
2023-02-19T13:01:20.085Z,50.32
2023-02-19T13:03:58.679Z,49.85
2023-02-19T13:06:35.233Z,49.83
2023-02-19T13:09:41.421Z,50.18
2023-02-19T13:12:32.307Z,49.72
2023-02-19T13:15:04.139Z,49.03
2023-02-19T13:17:41.755Z,48.91
2023-02-19T13:20:37.783Z,48.42
2023-02-19T13:23:36.281Z,48.09
2023-02-19T13:26:46.516Z,48.54
2023-02-19T13:29:38.648Z,48.15
2023-02-19T13:32:41.656Z,47.49
2023-02-19T13:35:24.695Z,48.58
2023-02-19T13:37:54.686Z,48.13
2023-02-19T13:40:25.274Z,48.03
2023-02-19T13:42:59.240Z,46.99
2023-02-19T13:45:40.820Z,47.23
2023-02-19T13:48:23.735Z,46.67
2023-02-19T13:51:17.228Z,46.67
2023-02-19T13:53:53.729Z,47.14
2023-02-19T13:56:30.413Z,47.38
2023-02-19T13:59:32.266Z,47.53
2023-02-19T14:02:00.720Z,47.94
2023-02-19T14:04:54.605Z,46.89
2023-02-19T14:07:35.123Z,47.15
2023-02-19T14:10:05.019Z,47.30
2023-02-19T14:12:36.247Z,46.96
2023-02-19T14:15:44.114Z,46.87
2023-02-19T14:18:52.818Z,46.78
2023-02-19T14:21:28.612Z,47.70
2023-02-19T14:23:58.184Z,48.33
2023-02-19T14:26:27.412Z,49.48
2023-02-19T14:28:55.285Z,50.02
2023-02-19T14:31:39.212Z,50.63
2023-02-19T14:34:22.873Z,51.08
2023-02-19T14:36:52.539Z,50.65
2023-02-19T14:39:27.737Z,50.93
2023-02-19T14:41:59.606Z,50.84
2023-02-19T14:44:30.617Z,51.11
2023-02-19T14:47:04.266Z,50.93
2023-02-19T14:49:55.673Z,51.43
2023-02-19T14:52:24.837Z,51.29
2023-02-19T14:54:56.697Z,51.56
2023-02-19T14:57:31.008Z,52.11
2023-02-19T15:00:23.881Z,52.06
2023-02-19T15:02:52.930Z,52.14
2023-02-19T15:05:37.526Z,52.37
2023-02-19T15:08:12.922Z,52.58
2023-02-19T15:10:43.103Z,52.59
2023-02-19T15:13:17.414Z,52.69
2023-02-19T15:15:46.480Z,53.10
2023-02-19T15:18:23.062Z,53.28
2023-02-19T15:20:52.831Z,53.48
2023-02-19T15:23:25.161Z,54.25
2023-02-19T15:25:53.646Z,54.59
2023-02-19T15:28:23.810Z,54.49
2023-02-19T15:31:06.288Z,54.05
2023-02-19T15:33:34.676Z,54.87
2023-02-19T15:36:08.514Z,55.18
2023-02-19T15:38:36.854Z,55.26
2023-02-19T15:41:04.922Z,55.69
2023-02-19T15:43:45.322Z,55.87
2023-02-19T15:46:20.362Z,55.99
2023-02-19T15:48:57.068Z,56.07
2023-02-19T15:51:40.632Z,56.19
2023-02-19T15:54:33.578Z,56.15
2023-02-19T15:57:09.645Z,56.14
2023-02-19T15:59:47.587Z,56.25
2023-02-19T16:02:16.277Z,56.30
2023-02-19T16:04:45.643Z,56.53
2023-02-19T16:07:27.990Z,56.88
2023-02-19T16:10:06.373Z,57.62
2023-02-19T16:12:34.069Z,58.07
2023-02-19T16:15:12.480Z,58.43
2023-02-19T16:17:44.477Z,58.59
2023-02-19T16:20:26.508Z,58.63
2023-02-19T16:23:02.910Z,58.92
2023-02-19T16:25:44.277Z,59.31
2023-02-19T16:28:14.269Z,59.68
2023-02-19T16:30:42.263Z,59.47
2023-02-19T16:33:33.611Z,59.52
2023-02-19T16:36:20.137Z,59.70
2023-02-19T16:39:13.067Z,59.80
2023-02-19T16:41:40.912Z,59.93
2023-02-19T16:44:20.781Z,60.13
2023-02-19T16:46:54.959Z,60.39
2023-02-19T16:49:23.838Z,60.45
2023-02-19T16:51:51.893Z,60.58
2023-02-19T16:54:19.454Z,60.70
2023-02-19T16:56:46.987Z,60.80
2023-02-19T16:59:14.794Z,61.09
2023-02-19T17:01:42.648Z,61.20
2023-02-19T17:04:12.647Z,61.49
2023-02-19T17:06:40.736Z,61.61
2023-02-19T17:09:09.710Z,61.82
2023-02-19T17:11:37.469Z,61.95
2023-02-19T17:14:05.300Z,62.03
2023-02-19T17:16:40.387Z,62.36
2023-02-19T17:19:18.447Z,62.77
2023-02-19T17:21:46.825Z,62.90
2023-02-19T17:24:14.844Z,63.14
2023-02-19T17:26:42.480Z,63.43
2023-02-19T17:29:15.631Z,63.79
2023-02-19T17:31:43.658Z,64.17
2023-02-19T17:34:11.589Z,64.25
2023-02-19T17:36:40.539Z,64.55
2023-02-19T17:39:15.268Z,64.37
2023-02-19T17:41:43.049Z,64.38
2023-02-19T17:44:11.100Z,64.54
2023-02-19T17:46:38.666Z,64.68
2023-02-19T17:49:07.510Z,64.89
2023-02-19T17:51:35.705Z,64.96
2023-02-19T17:54:03.242Z,64.91
2023-02-19T17:56:30.936Z,65.11
2023-02-19T17:58:59.807Z,65.30
2023-02-19T18:01:27.451Z,65.25
2023-02-19T18:03:55.366Z,65.64
2023-02-19T18:06:22.882Z,65.81
2023-02-19T18:08:52.979Z,65.78
2023-02-19T18:11:22.412Z,65.87
2023-02-19T18:13:51.734Z,65.75
2023-02-19T18:16:19.900Z,65.66
2023-02-19T18:18:47.837Z,65.75
2023-02-19T18:21:15.651Z,66.01
2023-02-19T18:23:43.404Z,65.99
2023-02-19T18:26:11.968Z,66.19
2023-02-19T18:28:40.049Z,66.81
2023-02-19T18:31:07.892Z,67.14
2023-02-19T18:33:35.858Z,68.04
2023-02-19T18:36:04.055Z,68.82
2023-02-19T18:38:31.579Z,68.86
2023-02-19T18:40:59.333Z,69.25
2023-02-19T18:43:26.870Z,69.25
2023-02-19T18:45:54.525Z,69.10
2023-02-19T18:48:22.800Z,69.05
2023-02-19T18:50:50.277Z,68.99
2023-02-19T18:53:17.742Z,68.78
2023-02-19T18:55:45.662Z,68.35
2023-02-19T18:58:13.182Z,67.96
2023-02-19T19:00:40.744Z,68.02
2023-02-19T19:03:08.617Z,68.57
2023-02-19T19:05:36.116Z,68.69
2023-02-19T19:08:04.043Z,68.84
2023-02-19T19:10:31.971Z,69.16
2023-02-19T19:12:59.570Z,68.79
2023-02-19T19:15:27.303Z,68.27
2023-02-19T19:17:55.303Z,67.49
2023-02-19T19:20:23.603Z,65.68
2023-02-19T19:22:54.428Z,64.40
2023-02-19T19:25:23.168Z,63.53
2023-02-19T19:27:54.478Z,62.72
2023-02-19T19:30:22.517Z,62.48
2023-02-19T19:32:52.294Z,62.01
2023-02-19T19:35:21.208Z,62.16
2023-02-19T19:37:49.763Z,62.06
2023-02-19T19:40:18.458Z,61.96
2023-02-19T19:42:46.764Z,61.49
2023-02-19T19:45:15.446Z,61.35
2023-02-19T19:47:43.207Z,61.08
2023-02-19T19:50:13.160Z,60.70
2023-02-19T19:52:41.139Z,60.58
2023-02-19T19:55:09.040Z,60.47
2023-02-19T19:57:38.535Z,60.44
2023-02-19T20:00:12.889Z,60.12
2023-02-19T20:02:40.772Z,60.22
2023-02-19T20:05:08.459Z,60.19
2023-02-19T20:07:36.299Z,60.15
2023-02-19T20:10:05.558Z,60.38
2023-02-19T20:12:33.572Z,61.09
2023-02-19T20:15:01.111Z,62.04
2023-02-19T20:17:29.094Z,62.46
2023-02-19T20:19:56.744Z,62.79
2023-02-19T20:22:24.636Z,63.12
2023-02-19T20:24:54.664Z,63.15
2023-02-19T20:27:23.500Z,63.47
2023-02-19T20:29:51.069Z,64.11
2023-02-19T20:32:18.896Z,64.19
2023-02-19T20:34:47.820Z,64.67
2023-02-19T20:37:15.716Z,66.02
2023-02-19T20:39:43.637Z,66.17
2023-02-19T20:42:11.222Z,66.64
2023-02-19T20:44:38.742Z,66.78
2023-02-19T20:47:06.585Z,66.93
2023-02-19T20:49:34.572Z,66.91
2023-02-19T20:52:06.699Z,66.92
2023-02-19T20:54:35.553Z,66.94
2023-02-19T20:57:05.402Z,67.01
2023-02-19T20:59:38.667Z,67.08
2023-02-19T21:02:14.359Z,66.95
2023-02-19T21:04:43.952Z,67.10
2023-02-19T21:07:11.820Z,67.23
2023-02-19T21:09:39.376Z,67.13
2023-02-19T21:12:07.135Z,67.22
2023-02-19T21:14:34.896Z,67.28
2023-02-19T21:17:02.532Z,67.11
2023-02-19T21:19:30.318Z,67.24
2023-02-19T21:21:58.192Z,67.14
2023-02-19T21:24:25.879Z,67.38
2023-02-19T21:26:53.555Z,67.33
2023-02-19T21:29:22.732Z,67.35
2023-02-19T21:31:54.583Z,67.41
2023-02-19T21:34:28.343Z,67.32
2023-02-19T21:36:56.716Z,67.30
2023-02-19T21:39:26.139Z,67.30
2023-02-19T21:41:54.150Z,67.24
2023-02-19T21:44:21.819Z,67.14
2023-02-19T21:46:49.677Z,67.09
2023-02-19T21:49:17.686Z,66.97
2023-02-19T21:51:47.878Z,67.08
2023-02-19T21:54:19.321Z,66.92
2023-02-19T21:56:48.576Z,66.93
2023-02-19T21:59:16.452Z,66.96
2023-02-19T22:01:45.775Z,66.75
2023-02-19T22:04:19.198Z,66.54
2023-02-19T22:06:47.377Z,66.47
2023-02-19T22:09:15.682Z,66.41
2023-02-19T22:11:43.204Z,66.30
2023-02-19T22:14:10.755Z,66.29
2023-02-19T22:16:38.635Z,66.27
2023-02-19T22:19:06.499Z,66.32
2023-02-19T22:21:34.057Z,66.37
2023-02-19T22:24:03.104Z,66.43
2023-02-19T22:26:34.034Z,66.52
2023-02-19T22:29:07.359Z,66.39
2023-02-19T22:31:35.600Z,66.32
2023-02-19T22:34:04.549Z,66.52
2023-02-19T22:36:34.301Z,66.46
2023-02-19T22:39:02.342Z,66.70
2023-02-19T22:41:30.268Z,66.70
2023-02-19T22:43:59.103Z,66.80
2023-02-19T22:46:29.906Z,67.13
2023-02-19T22:48:58.589Z,67.47
2023-02-19T22:51:26.917Z,67.82
2023-02-19T22:53:57.705Z,68.21
2023-02-19T22:56:27.920Z,68.66
2023-02-19T22:58:58.103Z,68.67
2023-02-19T23:01:28.026Z,68.86
2023-02-19T23:04:01.313Z,68.95
2023-02-19T23:06:32.605Z,69.45
2023-02-19T23:09:10.658Z,69.37
2023-02-19T23:11:39.442Z,69.27
2023-02-19T23:14:07.526Z,69.08
2023-02-19T23:16:37.985Z,68.95
2023-02-19T23:19:08.128Z,68.88
2023-02-19T23:21:35.597Z,68.92
2023-02-19T23:24:03.305Z,68.92
2023-02-19T23:26:31.297Z,68.77
2023-02-19T23:28:58.893Z,68.70
2023-02-19T23:31:26.972Z,68.63
2023-02-19T23:33:55.550Z,68.73
2023-02-19T23:36:23.968Z,68.62
2023-02-19T23:38:51.540Z,68.50
2023-02-19T23:41:19.463Z,68.96
2023-02-19T23:43:47.399Z,69.10
2023-02-19T23:46:18.678Z,69.22
2023-02-19T23:48:46.558Z,69.33
2023-02-19T23:51:14.588Z,69.52
2023-02-19T23:53:42.134Z,69.33
2023-02-19T23:56:10.172Z,69.23
2023-02-19T23:58:37.815Z,69.25
